sensor_id;sensor_type;location;lat;lon;timestamp;P1;durP1;ratioP1;P2;durP2;ratioP2
61685;SDS011;47592;45.904;8.978;2022-07-29T00:00:46;2.63;;;0.90;;
61685;SDS011;47592;45.904;8.978;2022-07-29T00:03:12;2.65;;;1.00;;
61685;SDS011;47592;45.904;8.978;2022-07-29T00:05:38;3.53;;;1.05;;
61685;SDS011;47592;45.904;8.978;2022-07-29T00:08:04;2.35;;;0.85;;
61685;SDS011;47592;45.904;8.978;2022-07-29T00:10:30;2.33;;;0.82;;
61685;SDS011;47592;45.904;8.978;2022-07-29T00:12:55;3.20;;;0.95;;
61685;SDS011;47592;45.904;8.978;2022-07-29T00:15:20;2.05;;;0.80;;
61685;SDS011;47592;45.904;8.978;2022-07-29T00:17:46;3.05;;;1.00;;
61685;SDS011;47592;45.904;8.978;2022-07-29T00:20:11;2.20;;;0.90;;
61685;SDS011;47592;45.904;8.978;2022-07-29T00:22:37;1.90;;;0.80;;
61685;SDS011;47592;45.904;8.978;2022-07-29T00:25:03;3.20;;;1.48;;
61685;SDS011;47592;45.904;8.978;2022-07-29T00:27:29;2.72;;;0.90;;
61685;SDS011;47592;45.904;8.978;2022-07-29T00:29:54;4.97;;;1.10;;
61685;SDS011;47592;45.904;8.978;2022-07-29T00:32:20;4.25;;;1.27;;
61685;SDS011;47592;45.904;8.978;2022-07-29T00:34:45;3.22;;;1.00;;
61685;SDS011;47592;45.904;8.978;2022-07-29T00:37:29;2.40;;;0.90;;
61685;SDS011;47592;45.904;8.978;2022-07-29T00:39:55;3.55;;;1.27;;
61685;SDS011;47592;45.904;8.978;2022-07-29T00:42:20;2.40;;;0.80;;
61685;SDS011;47592;45.904;8.978;2022-07-29T00:44:45;4.95;;;1.00;;
61685;SDS011;47592;45.904;8.978;2022-07-29T00:47:11;2.60;;;0.88;;
61685;SDS011;47592;45.904;8.978;2022-07-29T00:49:37;2.90;;;1.10;;
61685;SDS011;47592;45.904;8.978;2022-07-29T00:52:04;3.80;;;1.10;;
61685;SDS011;47592;45.904;8.978;2022-07-29T00:54:30;3.10;;;0.98;;
61685;SDS011;47592;45.904;8.978;2022-07-29T00:56:57;3.88;;;1.30;;
61685;SDS011;47592;45.904;8.978;2022-07-29T00:59:23;2.55;;;1.00;;
61685;SDS011;47592;45.904;8.978;2022-07-29T01:01:48;2.47;;;0.90;;
61685;SDS011;47592;45.904;8.978;2022-07-29T01:04:14;2.72;;;1.00;;
61685;SDS011;47592;45.904;8.978;2022-07-29T01:06:39;4.80;;;1.30;;
61685;SDS011;47592;45.904;8.978;2022-07-29T01:09:05;3.05;;;0.98;;
61685;SDS011;47592;45.904;8.978;2022-07-29T01:11:30;2.90;;;1.00;;
61685;SDS011;47592;45.904;8.978;2022-07-29T01:13:56;4.50;;;1.23;;
61685;SDS011;47592;45.904;8.978;2022-07-29T01:16:25;3.15;;;0.90;;
61685;SDS011;47592;45.904;8.978;2022-07-29T01:18:56;3.50;;;1.10;;
61685;SDS011;47592;45.904;8.978;2022-07-29T01:21:37;2.65;;;1.00;;
61685;SDS011;47592;45.904;8.978;2022-07-29T01:24:14;3.60;;;1.13;;
61685;SDS011;47592;45.904;8.978;2022-07-29T01:26:52;3.40;;;1.00;;
61685;SDS011;47592;45.904;8.978;2022-07-29T01:29:45;3.40;;;1.20;;
61685;SDS011;47592;45.904;8.978;2022-07-29T01:32:18;3.38;;;1.30;;
61685;SDS011;47592;45.904;8.978;2022-07-29T01:34:53;3.58;;;1.15;;
61685;SDS011;47592;45.904;8.978;2022-07-29T01:37:44;4.65;;;1.33;;
61685;SDS011;47592;45.904;8.978;2022-07-29T01:43:00;3.47;;;1.23;;
61685;SDS011;47592;45.904;8.978;2022-07-29T01:45:40;3.22;;;1.10;;
61685;SDS011;47592;45.904;8.978;2022-07-29T01:48:13;3.63;;;1.10;;
61685;SDS011;47592;45.904;8.978;2022-07-29T01:53:46;3.40;;;1.13;;
61685;SDS011;47592;45.904;8.978;2022-07-29T01:56:16;3.47;;;1.02;;
61685;SDS011;47592;45.904;8.978;2022-07-29T01:58:43;4.03;;;1.27;;
61685;SDS011;47592;45.904;8.978;2022-07-29T02:01:10;2.67;;;0.98;;
61685;SDS011;47592;45.904;8.978;2022-07-29T02:03:36;2.97;;;1.02;;
61685;SDS011;47592;45.904;8.978;2022-07-29T02:06:03;3.28;;;1.13;;
61685;SDS011;47592;45.904;8.978;2022-07-29T02:08:30;3.40;;;1.10;;
61685;SDS011;47592;45.904;8.978;2022-07-29T02:10:56;3.67;;;1.10;;
61685;SDS011;47592;45.904;8.978;2022-07-29T02:13:21;3.03;;;1.13;;
61685;SDS011;47592;45.904;8.978;2022-07-29T02:15:47;3.15;;;1.00;;
61685;SDS011;47592;45.904;8.978;2022-07-29T02:18:15;3.08;;;1.17;;
61685;SDS011;47592;45.904;8.978;2022-07-29T02:20:46;3.50;;;1.23;;
61685;SDS011;47592;45.904;8.978;2022-07-29T02:23:14;3.63;;;1.15;;
61685;SDS011;47592;45.904;8.978;2022-07-29T02:25:42;4.00;;;1.20;;
61685;SDS011;47592;45.904;8.978;2022-07-29T02:28:08;2.88;;;1.08;;
61685;SDS011;47592;45.904;8.978;2022-07-29T02:30:34;3.15;;;1.05;;
61685;SDS011;47592;45.904;8.978;2022-07-29T02:33:01;3.20;;;1.20;;
61685;SDS011;47592;45.904;8.978;2022-07-29T02:35:27;5.95;;;1.05;;
61685;SDS011;47592;45.904;8.978;2022-07-29T02:37:54;3.60;;;1.00;;
61685;SDS011;47592;45.904;8.978;2022-07-29T02:40:38;3.92;;;1.10;;
61685;SDS011;47592;45.904;8.978;2022-07-29T02:43:05;4.70;;;1.30;;
61685;SDS011;47592;45.904;8.978;2022-07-29T02:45:32;3.55;;;1.20;;
61685;SDS011;47592;45.904;8.978;2022-07-29T02:47:58;4.53;;;1.20;;
61685;SDS011;47592;45.904;8.978;2022-07-29T02:50:32;6.28;;;1.35;;
61685;SDS011;47592;45.904;8.978;2022-07-29T02:53:13;3.30;;;1.00;;
61685;SDS011;47592;45.904;8.978;2022-07-29T02:56:04;3.35;;;1.13;;
61685;SDS011;47592;45.904;8.978;2022-07-29T02:58:30;3.25;;;1.10;;
61685;SDS011;47592;45.904;8.978;2022-07-29T03:00:59;3.28;;;1.10;;
61685;SDS011;47592;45.904;8.978;2022-07-29T03:03:29;3.53;;;1.10;;
61685;SDS011;47592;45.904;8.978;2022-07-29T03:05:56;2.95;;;0.95;;
61685;SDS011;47592;45.904;8.978;2022-07-29T03:08:23;3.55;;;1.10;;
61685;SDS011;47592;45.904;8.978;2022-07-29T03:10:49;2.97;;;1.00;;
61685;SDS011;47592;45.904;8.978;2022-07-29T03:13:16;3.35;;;1.25;;
61685;SDS011;47592;45.904;8.978;2022-07-29T03:15:42;2.83;;;1.05;;
61685;SDS011;47592;45.904;8.978;2022-07-29T03:18:09;3.70;;;1.30;;
61685;SDS011;47592;45.904;8.978;2022-07-29T03:20:34;3.08;;;1.08;;
61685;SDS011;47592;45.904;8.978;2022-07-29T03:23:00;3.20;;;1.10;;
61685;SDS011;47592;45.904;8.978;2022-07-29T03:25:25;3.33;;;1.10;;
61685;SDS011;47592;45.904;8.978;2022-07-29T03:27:52;4.03;;;1.13;;
61685;SDS011;47592;45.904;8.978;2022-07-29T03:30:17;3.42;;;1.27;;
61685;SDS011;47592;45.904;8.978;2022-07-29T03:32:43;3.80;;;1.02;;
61685;SDS011;47592;45.904;8.978;2022-07-29T03:35:08;3.28;;;1.20;;
61685;SDS011;47592;45.904;8.978;2022-07-29T03:37:34;3.53;;;1.13;;
61685;SDS011;47592;45.904;8.978;2022-07-29T03:40:02;3.20;;;1.20;;
61685;SDS011;47592;45.904;8.978;2022-07-29T03:42:30;3.53;;;1.30;;
61685;SDS011;47592;45.904;8.978;2022-07-29T03:44:57;5.50;;;1.13;;
61685;SDS011;47592;45.904;8.978;2022-07-29T03:47:25;3.10;;;1.10;;
61685;SDS011;47592;45.904;8.978;2022-07-29T03:49:54;2.80;;;1.00;;
61685;SDS011;47592;45.904;8.978;2022-07-29T03:52:21;3.43;;;1.10;;
61685;SDS011;47592;45.904;8.978;2022-07-29T03:54:47;4.55;;;1.30;;
61685;SDS011;47592;45.904;8.978;2022-07-29T03:57:12;2.92;;;1.10;;
61685;SDS011;47592;45.904;8.978;2022-07-29T03:59:39;4.68;;;1.20;;
61685;SDS011;47592;45.904;8.978;2022-07-29T04:02:05;4.40;;;1.15;;
61685;SDS011;47592;45.904;8.978;2022-07-29T04:04:34;3.78;;;1.10;;
61685;SDS011;47592;45.904;8.978;2022-07-29T04:07:00;2.53;;;1.10;;
61685;SDS011;47592;45.904;8.978;2022-07-29T04:09:26;3.50;;;1.10;;
61685;SDS011;47592;45.904;8.978;2022-07-29T04:11:51;3.08;;;1.13;;
61685;SDS011;47592;45.904;8.978;2022-07-29T04:14:17;3.25;;;0.90;;
61685;SDS011;47592;45.904;8.978;2022-07-29T04:16:43;3.03;;;0.98;;
61685;SDS011;47592;45.904;8.978;2022-07-29T04:19:08;3.80;;;1.20;;
61685;SDS011;47592;45.904;8.978;2022-07-29T04:21:40;4.10;;;1.15;;
61685;SDS011;47592;45.904;8.978;2022-07-29T04:24:06;3.13;;;1.05;;
61685;SDS011;47592;45.904;8.978;2022-07-29T04:26:32;2.30;;;0.80;;
61685;SDS011;47592;45.904;8.978;2022-07-29T04:28:58;3.40;;;1.40;;
61685;SDS011;47592;45.904;8.978;2022-07-29T04:31:23;4.95;;;1.15;;
61685;SDS011;47592;45.904;8.978;2022-07-29T04:33:49;3.08;;;1.10;;
61685;SDS011;47592;45.904;8.978;2022-07-29T04:36:14;4.65;;;1.23;;
61685;SDS011;47592;45.904;8.978;2022-07-29T04:38:40;2.78;;;1.05;;
61685;SDS011;47592;45.904;8.978;2022-07-29T04:41:05;3.55;;;1.27;;
61685;SDS011;47592;45.904;8.978;2022-07-29T04:43:32;2.80;;;1.13;;
61685;SDS011;47592;45.904;8.978;2022-07-29T04:45:58;3.08;;;0.90;;
61685;SDS011;47592;45.904;8.978;2022-07-29T04:48:24;2.97;;;1.20;;
61685;SDS011;47592;45.904;8.978;2022-07-29T04:50:50;4.22;;;1.20;;
61685;SDS011;47592;45.904;8.978;2022-07-29T04:53:15;4.15;;;1.20;;
61685;SDS011;47592;45.904;8.978;2022-07-29T04:55:41;3.28;;;1.25;;
61685;SDS011;47592;45.904;8.978;2022-07-29T04:58:06;2.80;;;1.10;;
61685;SDS011;47592;45.904;8.978;2022-07-29T05:00:32;3.28;;;1.20;;
61685;SDS011;47592;45.904;8.978;2022-07-29T05:02:58;3.22;;;1.10;;
61685;SDS011;47592;45.904;8.978;2022-07-29T05:05:23;2.97;;;1.13;;
61685;SDS011;47592;45.904;8.978;2022-07-29T05:07:48;4.65;;;1.10;;
61685;SDS011;47592;45.904;8.978;2022-07-29T05:10:14;3.80;;;1.10;;
61685;SDS011;47592;45.904;8.978;2022-07-29T05:12:39;3.08;;;1.10;;
61685;SDS011;47592;45.904;8.978;2022-07-29T05:15:04;2.70;;;1.10;;
61685;SDS011;47592;45.904;8.978;2022-07-29T05:17:30;4.40;;;1.30;;
61685;SDS011;47592;45.904;8.978;2022-07-29T05:19:56;3.80;;;1.27;;
61685;SDS011;47592;45.904;8.978;2022-07-29T05:22:21;4.05;;;1.30;;
61685;SDS011;47592;45.904;8.978;2022-07-29T05:24:47;3.53;;;0.90;;
61685;SDS011;47592;45.904;8.978;2022-07-29T05:27:12;3.67;;;1.30;;
61685;SDS011;47592;45.904;8.978;2022-07-29T05:29:38;3.10;;;0.95;;
61685;SDS011;47592;45.904;8.978;2022-07-29T05:32:04;3.50;;;1.20;;
61685;SDS011;47592;45.904;8.978;2022-07-29T05:34:30;4.60;;;1.10;;
61685;SDS011;47592;45.904;8.978;2022-07-29T05:36:56;3.08;;;1.00;;
61685;SDS011;47592;45.904;8.978;2022-07-29T05:39:22;2.58;;;0.93;;
61685;SDS011;47592;45.904;8.978;2022-07-29T05:41:48;3.13;;;1.10;;
61685;SDS011;47592;45.904;8.978;2022-07-29T05:44:13;3.78;;;1.10;;
61685;SDS011;47592;45.904;8.978;2022-07-29T05:46:39;3.20;;;1.17;;
61685;SDS011;47592;45.904;8.978;2022-07-29T05:49:04;3.00;;;1.10;;
61685;SDS011;47592;45.904;8.978;2022-07-29T05:51:31;3.45;;;1.10;;
61685;SDS011;47592;45.904;8.978;2022-07-29T05:53:57;3.28;;;1.35;;
61685;SDS011;47592;45.904;8.978;2022-07-29T05:56:22;3.40;;;1.17;;
61685;SDS011;47592;45.904;8.978;2022-07-29T05:58:48;3.08;;;1.00;;
61685;SDS011;47592;45.904;8.978;2022-07-29T06:01:13;3.60;;;1.20;;
61685;SDS011;47592;45.904;8.978;2022-07-29T06:03:39;3.00;;;1.25;;
61685;SDS011;47592;45.904;8.978;2022-07-29T06:06:06;3.25;;;1.20;;
61685;SDS011;47592;45.904;8.978;2022-07-29T06:08:32;5.18;;;1.35;;
61685;SDS011;47592;45.904;8.978;2022-07-29T06:10:58;2.85;;;1.08;;
61685;SDS011;47592;45.904;8.978;2022-07-29T06:13:24;3.50;;;1.45;;
61685;SDS011;47592;45.904;8.978;2022-07-29T06:15:50;3.40;;;1.55;;
61685;SDS011;47592;45.904;8.978;2022-07-29T06:18:16;3.72;;;1.15;;
61685;SDS011;47592;45.904;8.978;2022-07-29T06:20:41;3.42;;;1.30;;
61685;SDS011;47592;45.904;8.978;2022-07-29T06:23:06;3.30;;;1.10;;
61685;SDS011;47592;45.904;8.978;2022-07-29T06:25:32;2.97;;;1.10;;
61685;SDS011;47592;45.904;8.978;2022-07-29T06:28:00;2.92;;;1.15;;
61685;SDS011;47592;45.904;8.978;2022-07-29T06:30:26;3.78;;;1.20;;
61685;SDS011;47592;45.904;8.978;2022-07-29T06:32:51;4.47;;;1.23;;
61685;SDS011;47592;45.904;8.978;2022-07-29T06:35:17;2.75;;;1.02;;
61685;SDS011;47592;45.904;8.978;2022-07-29T06:37:43;3.70;;;1.30;;
61685;SDS011;47592;45.904;8.978;2022-07-29T06:40:08;3.20;;;1.10;;
61685;SDS011;47592;45.904;8.978;2022-07-29T06:42:52;3.67;;;1.25;;
61685;SDS011;47592;45.904;8.978;2022-07-29T06:45:18;3.83;;;1.30;;
61685;SDS011;47592;45.904;8.978;2022-07-29T06:47:43;4.75;;;1.42;;
61685;SDS011;47592;45.904;8.978;2022-07-29T06:50:09;4.30;;;1.17;;
61685;SDS011;47592;45.904;8.978;2022-07-29T06:52:37;4.57;;;1.40;;
61685;SDS011;47592;45.904;8.978;2022-07-29T06:55:03;3.10;;;1.25;;
61685;SDS011;47592;45.904;8.978;2022-07-29T06:57:28;3.28;;;1.10;;
61685;SDS011;47592;45.904;8.978;2022-07-29T06:59:55;4.10;;;1.27;;
61685;SDS011;47592;45.904;8.978;2022-07-29T07:02:21;4.20;;;1.17;;
61685;SDS011;47592;45.904;8.978;2022-07-29T07:04:47;4.32;;;1.23;;
61685;SDS011;47592;45.904;8.978;2022-07-29T07:07:12;6.68;;;1.30;;
61685;SDS011;47592;45.904;8.978;2022-07-29T07:09:37;3.55;;;1.10;;
61685;SDS011;47592;45.904;8.978;2022-07-29T07:12:03;3.40;;;1.30;;
61685;SDS011;47592;45.904;8.978;2022-07-29T07:14:28;3.22;;;1.27;;
61685;SDS011;47592;45.904;8.978;2022-07-29T07:16:54;4.28;;;1.33;;
61685;SDS011;47592;45.904;8.978;2022-07-29T07:19:19;3.13;;;1.00;;
61685;SDS011;47592;45.904;8.978;2022-07-29T07:21:45;4.97;;;1.40;;
61685;SDS011;47592;45.904;8.978;2022-07-29T07:24:10;4.72;;;1.30;;
61685;SDS011;47592;45.904;8.978;2022-07-29T07:26:35;3.65;;;1.20;;
61685;SDS011;47592;45.904;8.978;2022-07-29T07:29:01;3.45;;;1.30;;
61685;SDS011;47592;45.904;8.978;2022-07-29T07:31:26;3.92;;;1.30;;
61685;SDS011;47592;45.904;8.978;2022-07-29T07:33:52;4.32;;;1.88;;
61685;SDS011;47592;45.904;8.978;2022-07-29T07:36:18;3.38;;;1.45;;
61685;SDS011;47592;45.904;8.978;2022-07-29T07:38:44;4.00;;;1.40;;
61685;SDS011;47592;45.904;8.978;2022-07-29T08:01:59;4.07;;;1.63;;
61685;SDS011;47592;45.904;8.978;2022-07-29T08:04:25;5.93;;;2.20;;
61685;SDS011;47592;45.904;8.978;2022-07-29T08:06:51;7.78;;;3.00;;
61685;SDS011;47592;45.904;8.978;2022-07-29T08:09:19;10.68;;;4.75;;
61685;SDS011;47592;45.904;8.978;2022-07-29T08:11:47;7.07;;;3.70;;
61685;SDS011;47592;45.904;8.978;2022-07-29T08:14:13;6.35;;;2.13;;
61685;SDS011;47592;45.904;8.978;2022-07-29T08:16:39;4.95;;;1.73;;
61685;SDS011;47592;45.904;8.978;2022-07-29T08:19:05;4.50;;;1.30;;
61685;SDS011;47592;45.904;8.978;2022-07-29T08:21:31;4.85;;;1.67;;
61685;SDS011;47592;45.904;8.978;2022-07-29T08:23:56;3.00;;;1.20;;
61685;SDS011;47592;45.904;8.978;2022-07-29T08:26:42;3.75;;;1.30;;
61685;SDS011;47592;45.904;8.978;2022-07-29T08:29:08;3.33;;;1.33;;
61685;SDS011;47592;45.904;8.978;2022-07-29T08:31:34;3.55;;;1.60;;
61685;SDS011;47592;45.904;8.978;2022-07-29T08:34:00;4.70;;;2.00;;
61685;SDS011;47592;45.904;8.978;2022-07-29T08:36:27;5.28;;;1.58;;
61685;SDS011;47592;45.904;8.978;2022-07-29T08:38:53;4.72;;;2.00;;
61685;SDS011;47592;45.904;8.978;2022-07-29T08:41:19;3.28;;;1.30;;
61685;SDS011;47592;45.904;8.978;2022-07-29T08:43:45;3.58;;;1.35;;
61685;SDS011;47592;45.904;8.978;2022-07-29T08:46:11;3.83;;;1.30;;
61685;SDS011;47592;45.904;8.978;2022-07-29T08:48:36;3.90;;;1.50;;
61685;SDS011;47592;45.904;8.978;2022-07-29T08:51:02;3.47;;;1.20;;
61685;SDS011;47592;45.904;8.978;2022-07-29T08:53:28;4.13;;;1.27;;
61685;SDS011;47592;45.904;8.978;2022-07-29T08:55:54;3.30;;;1.20;;
61685;SDS011;47592;45.904;8.978;2022-07-29T08:58:20;4.50;;;1.70;;
61685;SDS011;47592;45.904;8.978;2022-07-29T09:00:48;4.47;;;1.80;;
61685;SDS011;47592;45.904;8.978;2022-07-29T09:03:17;4.15;;;1.60;;
61685;SDS011;47592;45.904;8.978;2022-07-29T09:05:47;3.20;;;1.30;;
61685;SDS011;47592;45.904;8.978;2022-07-29T09:08:13;4.70;;;1.23;;
61685;SDS011;47592;45.904;8.978;2022-07-29T09:10:40;3.28;;;1.00;;
61685;SDS011;47592;45.904;8.978;2022-07-29T09:13:05;3.17;;;1.20;;
61685;SDS011;47592;45.904;8.978;2022-07-29T09:15:31;3.70;;;1.30;;
61685;SDS011;47592;45.904;8.978;2022-07-29T09:17:56;3.80;;;1.40;;
61685;SDS011;47592;45.904;8.978;2022-07-29T09:20:23;3.83;;;1.13;;
61685;SDS011;47592;45.904;8.978;2022-07-29T09:22:49;5.93;;;1.50;;
61685;SDS011;47592;45.904;8.978;2022-07-29T09:28:06;3.08;;;1.05;;
61685;SDS011;47592;45.904;8.978;2022-07-29T09:30:51;5.55;;;1.50;;
61685;SDS011;47592;45.904;8.978;2022-07-29T09:33:17;3.50;;;1.15;;
61685;SDS011;47592;45.904;8.978;2022-07-29T09:35:43;3.15;;;1.13;;
61685;SDS011;47592;45.904;8.978;2022-07-29T09:38:12;3.38;;;1.17;;
61685;SDS011;47592;45.904;8.978;2022-07-29T09:40:38;3.63;;;1.30;;
61685;SDS011;47592;45.904;8.978;2022-07-29T09:43:10;3.40;;;1.20;;
61685;SDS011;47592;45.904;8.978;2022-07-29T09:45:37;2.88;;;1.20;;
61685;SDS011;47592;45.904;8.978;2022-07-29T09:51:00;3.25;;;1.27;;
61685;SDS011;47592;45.904;8.978;2022-07-29T09:53:33;2.83;;;1.08;;
61685;SDS011;47592;45.904;8.978;2022-07-29T09:56:00;3.90;;;1.40;;
61685;SDS011;47592;45.904;8.978;2022-07-29T09:58:26;4.32;;;1.40;;
61685;SDS011;47592;45.904;8.978;2022-07-29T10:00:52;4.07;;;1.40;;
61685;SDS011;47592;45.904;8.978;2022-07-29T10:03:18;4.57;;;1.20;;
61685;SDS011;47592;45.904;8.978;2022-07-29T10:05:44;3.40;;;1.10;;
61685;SDS011;47592;45.904;8.978;2022-07-29T10:08:11;4.10;;;1.40;;
61685;SDS011;47592;45.904;8.978;2022-07-29T10:10:42;3.28;;;1.38;;
61685;SDS011;47592;45.904;8.978;2022-07-29T10:13:12;5.28;;;1.50;;
61685;SDS011;47592;45.904;8.978;2022-07-29T10:15:39;3.50;;;1.45;;
61685;SDS011;47592;45.904;8.978;2022-07-29T10:18:09;3.85;;;1.35;;
61685;SDS011;47592;45.904;8.978;2022-07-29T10:20:36;3.83;;;1.40;;
61685;SDS011;47592;45.904;8.978;2022-07-29T10:23:02;3.83;;;1.45;;
61685;SDS011;47592;45.904;8.978;2022-07-29T10:25:28;4.25;;;1.60;;
61685;SDS011;47592;45.904;8.978;2022-07-29T10:27:54;3.50;;;1.30;;
61685;SDS011;47592;45.904;8.978;2022-07-29T10:30:20;4.07;;;1.40;;
61685;SDS011;47592;45.904;8.978;2022-07-29T10:44:18;4.25;;;1.52;;
61685;SDS011;47592;45.904;8.978;2022-07-29T10:46:46;3.97;;;1.40;;
61685;SDS011;47592;45.904;8.978;2022-07-29T10:49:13;3.70;;;1.40;;
61685;SDS011;47592;45.904;8.978;2022-07-29T11:05:07;3.80;;;1.60;;
61685;SDS011;47592;45.904;8.978;2022-07-29T11:07:35;4.15;;;1.65;;
61685;SDS011;47592;45.904;8.978;2022-07-29T11:28:39;3.75;;;1.60;;
61685;SDS011;47592;45.904;8.978;2022-07-29T11:31:08;3.97;;;1.50;;
61685;SDS011;47592;45.904;8.978;2022-07-29T11:33:34;3.78;;;1.75;;
61685;SDS011;47592;45.904;8.978;2022-07-29T11:36:08;3.85;;;1.88;;
61685;SDS011;47592;45.904;8.978;2022-07-29T11:38:35;3.55;;;1.50;;
61685;SDS011;47592;45.904;8.978;2022-07-29T11:41:20;5.22;;;1.80;;
61685;SDS011;47592;45.904;8.978;2022-07-29T11:43:49;3.90;;;1.80;;
61685;SDS011;47592;45.904;8.978;2022-07-29T11:46:18;4.10;;;1.60;;
61685;SDS011;47592;45.904;8.978;2022-07-29T11:49:03;4.72;;;1.90;;
61685;SDS011;47592;45.904;8.978;2022-07-29T11:51:29;4.47;;;1.60;;
61685;SDS011;47592;45.904;8.978;2022-07-29T11:53:54;3.58;;;1.52;;
61685;SDS011;47592;45.904;8.978;2022-07-29T11:56:20;3.50;;;1.42;;
61685;SDS011;47592;45.904;8.978;2022-07-29T11:58:46;3.45;;;1.48;;
61685;SDS011;47592;45.904;8.978;2022-07-29T12:01:15;4.38;;;1.80;;
61685;SDS011;47592;45.904;8.978;2022-07-29T12:03:42;3.92;;;1.90;;
61685;SDS011;47592;45.904;8.978;2022-07-29T12:06:13;5.40;;;2.10;;
61685;SDS011;47592;45.904;8.978;2022-07-29T12:08:40;3.95;;;1.92;;
61685;SDS011;47592;45.904;8.978;2022-07-29T12:11:14;4.75;;;2.20;;
61685;SDS011;47592;45.904;8.978;2022-07-29T12:13:43;4.88;;;2.05;;
61685;SDS011;47592;45.904;8.978;2022-07-29T12:16:09;4.10;;;1.85;;
61685;SDS011;47592;45.904;8.978;2022-07-29T12:18:34;4.25;;;2.00;;
61685;SDS011;47592;45.904;8.978;2022-07-29T12:21:00;4.05;;;1.95;;
61685;SDS011;47592;45.904;8.978;2022-07-29T12:23:28;4.33;;;1.93;;
61685;SDS011;47592;45.904;8.978;2022-07-29T12:25:54;4.47;;;2.20;;
61685;SDS011;47592;45.904;8.978;2022-07-29T12:28:20;4.05;;;1.90;;
61685;SDS011;47592;45.904;8.978;2022-07-29T12:30:47;4.60;;;1.80;;
61685;SDS011;47592;45.904;8.978;2022-07-29T12:33:24;3.58;;;1.60;;
61685;SDS011;47592;45.904;8.978;2022-07-29T12:35:55;4.72;;;2.10;;
61685;SDS011;47592;45.904;8.978;2022-07-29T12:38:24;6.38;;;2.13;;
61685;SDS011;47592;45.904;8.978;2022-07-29T12:40:51;4.53;;;1.90;;
61685;SDS011;47592;45.904;8.978;2022-07-29T12:43:21;4.32;;;2.00;;
61685;SDS011;47592;45.904;8.978;2022-07-29T12:45:48;4.82;;;1.88;;
61685;SDS011;47592;45.904;8.978;2022-07-29T12:48:15;4.47;;;2.20;;
61685;SDS011;47592;45.904;8.978;2022-07-29T12:50:57;4.60;;;2.15;;
61685;SDS011;47592;45.904;8.978;2022-07-29T12:53:24;3.97;;;2.10;;
61685;SDS011;47592;45.904;8.978;2022-07-29T12:55:50;4.25;;;2.10;;
61685;SDS011;47592;45.904;8.978;2022-07-29T13:01:03;4.43;;;1.92;;
61685;SDS011;47592;45.904;8.978;2022-07-29T13:03:50;4.30;;;2.05;;
61685;SDS011;47592;45.904;8.978;2022-07-29T13:06:35;3.85;;;1.90;;
61685;SDS011;47592;45.904;8.978;2022-07-29T13:14:10;4.32;;;1.95;;
61685;SDS011;47592;45.904;8.978;2022-07-29T13:16:59;4.28;;;2.17;;
61685;SDS011;47592;45.904;8.978;2022-07-29T13:19:35;4.55;;;2.33;;
61685;SDS011;47592;45.904;8.978;2022-07-29T13:22:24;4.03;;;2.10;;
61685;SDS011;47592;45.904;8.978;2022-07-29T13:24:53;6.20;;;3.00;;
61685;SDS011;47592;45.904;8.978;2022-07-29T13:27:26;6.55;;;3.40;;
61685;SDS011;47592;45.904;8.978;2022-07-29T13:29:59;6.10;;;3.47;;
61685;SDS011;47592;45.904;8.978;2022-07-29T13:32:26;6.18;;;2.80;;
61685;SDS011;47592;45.904;8.978;2022-07-29T13:34:53;5.05;;;2.88;;
61685;SDS011;47592;45.904;8.978;2022-07-29T13:37:18;5.93;;;3.03;;
61685;SDS011;47592;45.904;8.978;2022-07-29T13:39:44;6.00;;;3.50;;
61685;SDS011;47592;45.904;8.978;2022-07-29T13:42:10;13.77;;;4.30;;
61685;SDS011;47592;45.904;8.978;2022-07-29T13:44:38;5.65;;;2.60;;
61685;SDS011;47592;45.904;8.978;2022-07-29T13:47:04;5.75;;;2.72;;
61685;SDS011;47592;45.904;8.978;2022-07-29T13:49:30;4.90;;;2.40;;
61685;SDS011;47592;45.904;8.978;2022-07-29T13:51:56;4.90;;;2.90;;
61685;SDS011;47592;45.904;8.978;2022-07-29T13:54:21;6.07;;;3.40;;
61685;SDS011;47592;45.904;8.978;2022-07-29T13:56:46;4.80;;;2.40;;
61685;SDS011;47592;45.904;8.978;2022-07-29T13:59:12;4.75;;;2.17;;
61685;SDS011;47592;45.904;8.978;2022-07-29T14:01:37;3.92;;;2.00;;
61685;SDS011;47592;45.904;8.978;2022-07-29T14:04:06;6.40;;;1.70;;
61685;SDS011;47592;45.904;8.978;2022-07-29T14:06:31;3.90;;;1.65;;
61685;SDS011;47592;45.904;8.978;2022-07-29T14:08:57;5.43;;;1.92;;
61685;SDS011;47592;45.904;8.978;2022-07-29T14:11:22;4.75;;;1.80;;
61685;SDS011;47592;45.904;8.978;2022-07-29T14:13:47;4.22;;;2.10;;
61685;SDS011;47592;45.904;8.978;2022-07-29T14:16:13;6.10;;;2.20;;
61685;SDS011;47592;45.904;8.978;2022-07-29T14:18:38;3.72;;;1.80;;
61685;SDS011;47592;45.904;8.978;2022-07-29T14:21:04;3.90;;;1.80;;
61685;SDS011;47592;45.904;8.978;2022-07-29T14:23:29;4.07;;;2.17;;
61685;SDS011;47592;45.904;8.978;2022-07-29T14:25:55;5.65;;;2.20;;
61685;SDS011;47592;45.904;8.978;2022-07-29T14:28:20;4.32;;;2.10;;
61685;SDS011;47592;45.904;8.978;2022-07-29T14:30:45;3.90;;;1.92;;
61685;SDS011;47592;45.904;8.978;2022-07-29T14:33:11;4.13;;;1.98;;
61685;SDS011;47592;45.904;8.978;2022-07-29T14:35:36;5.68;;;2.42;;
61685;SDS011;47592;45.904;8.978;2022-07-29T14:38:02;5.40;;;2.30;;
61685;SDS011;47592;45.904;8.978;2022-07-29T14:40:27;4.40;;;2.08;;
61685;SDS011;47592;45.904;8.978;2022-07-29T14:42:52;5.32;;;2.55;;
61685;SDS011;47592;45.904;8.978;2022-07-29T14:45:18;5.20;;;2.50;;
61685;SDS011;47592;45.904;8.978;2022-07-29T14:47:43;4.63;;;2.55;;
61685;SDS011;47592;45.904;8.978;2022-07-29T14:50:09;7.90;;;2.65;;
61685;SDS011;47592;45.904;8.978;2022-07-29T14:52:34;4.60;;;2.47;;
61685;SDS011;47592;45.904;8.978;2022-07-29T14:55:00;5.32;;;2.55;;
61685;SDS011;47592;45.904;8.978;2022-07-29T14:57:25;5.65;;;2.67;;
61685;SDS011;47592;45.904;8.978;2022-07-29T14:59:50;5.60;;;2.65;;
61685;SDS011;47592;45.904;8.978;2022-07-29T15:02:16;5.20;;;2.97;;
61685;SDS011;47592;45.904;8.978;2022-07-29T15:04:41;4.93;;;2.97;;
61685;SDS011;47592;45.904;8.978;2022-07-29T15:07:07;5.65;;;3.55;;
61685;SDS011;47592;45.904;8.978;2022-07-29T15:09:33;6.28;;;3.50;;
61685;SDS011;47592;45.904;8.978;2022-07-29T15:11:58;6.10;;;3.17;;
61685;SDS011;47592;45.904;8.978;2022-07-29T15:14:24;4.82;;;2.90;;
61685;SDS011;47592;45.904;8.978;2022-07-29T15:16:49;5.57;;;3.03;;
61685;SDS011;47592;45.904;8.978;2022-07-29T15:19:14;5.35;;;3.00;;
61685;SDS011;47592;45.904;8.978;2022-07-29T15:21:40;6.22;;;3.00;;
61685;SDS011;47592;45.904;8.978;2022-07-29T15:24:05;5.55;;;2.70;;
61685;SDS011;47592;45.904;8.978;2022-07-29T15:26:32;6.03;;;3.03;;
61685;SDS011;47592;45.904;8.978;2022-07-29T15:28:58;5.28;;;2.78;;
61685;SDS011;47592;45.904;8.978;2022-07-29T15:31:23;5.13;;;2.78;;
61685;SDS011;47592;45.904;8.978;2022-07-29T15:33:49;5.88;;;2.90;;
61685;SDS011;47592;45.904;8.978;2022-07-29T15:36:14;6.38;;;2.83;;
61685;SDS011;47592;45.904;8.978;2022-07-29T15:38:40;4.85;;;2.78;;
61685;SDS011;47592;45.904;8.978;2022-07-29T15:41:08;5.40;;;2.92;;
61685;SDS011;47592;45.904;8.978;2022-07-29T15:43:34;6.30;;;2.80;;
61685;SDS011;47592;45.904;8.978;2022-07-29T15:46:02;5.78;;;2.60;;
61685;SDS011;47592;45.904;8.978;2022-07-29T15:48:46;4.85;;;2.60;;
61685;SDS011;47592;45.904;8.978;2022-07-29T15:51:11;4.90;;;3.08;;
61685;SDS011;47592;45.904;8.978;2022-07-29T15:53:37;4.70;;;2.65;;
61685;SDS011;47592;45.904;8.978;2022-07-29T15:56:02;5.43;;;2.78;;
61685;SDS011;47592;45.904;8.978;2022-07-29T15:58:28;4.40;;;2.60;;
61685;SDS011;47592;45.904;8.978;2022-07-29T16:00:54;6.20;;;2.60;;
61685;SDS011;47592;45.904;8.978;2022-07-29T16:03:19;5.38;;;2.78;;
61685;SDS011;47592;45.904;8.978;2022-07-29T16:05:46;5.75;;;2.90;;
61685;SDS011;47592;45.904;8.978;2022-07-29T16:08:12;5.18;;;3.08;;
61685;SDS011;47592;45.904;8.978;2022-07-29T16:10:37;7.32;;;2.90;;
61685;SDS011;47592;45.904;8.978;2022-07-29T16:13:03;5.60;;;2.75;;